Time;durP1;ratioP1;P1;durP2;ratioP2;P2;SDS_P1;SDS_P2;PMS_P1;PMS_P2;Temp;Humidity;BMP_temperature;BMP_pressure;BME280_temperature;BME280_humidity;BME280_pressure;Samples;Min_cycle;Max_cycle;Signal;HPM_P1;HPM_P2
2023/07/02 00:01:27;;;;;;;2.33;1.13;;;19.50;31.10;;;;;;8263730;28;20188;-64
2023/07/02 00:05:28;;;;;;;3.30;1.30;;;19.40;51.70;;;;;;8280872;28;20234;-65
2023/07/02 00:09:35;;;;;;;1.43;1.30;;;19.40;65.80;;;;;;8266935;28;20216;-66
2023/07/02 00:13:42;;;;;;;3.33;1.63;;;19.30;77.90;;;;;;8266880;28;20249;-65
2023/07/02 00:17:43;;;;;;;2.20;1.20;;;19.30;93.80;;;;;;8269262;28;20210;-64
2023/07/02 00:21:43;;;;;;;1.27;1.10;;;19.30;99.90;;;;;;8264563;28;20195;-66
2023/07/02 00:25:44;;;;;;;2.73;1.50;;;19.20;99.90;;;;;;8267899;28;20194;-64
2023/07/02 00:29:45;;;;;;;2.03;1.10;;;19.20;99.90;;;;;;8275095;28;20203;-67
2023/07/02 00:33:50;;;;;;;3.07;1.60;;;19.00;99.90;;;;;;8273988;28;20207;-66
2023/07/02 00:37:50;;;;;;;2.27;1.20;;;18.80;99.90;;;;;;8271796;28;20232;-64
2023/07/02 00:41:51;;;;;;;1.33;1.23;;;18.70;99.90;;;;;;8274685;28;20192;-67
2023/07/02 00:45:52;;;;;;;2.27;1.20;;;18.70;99.90;;;;;;8277589;28;20282;-66
2023/07/02 00:49:54;;;;;;;2.37;1.20;;;18.70;99.90;;;;;;8270843;28;20222;-66
2023/07/02 00:53:56;;;;;;;2.63;1.10;;;18.50;99.90;;;;;;8268966;28;20198;-65
2023/07/02 00:57:56;;;;;;;2.17;1.07;;;18.40;99.90;;;;;;8274602;28;20215;-64
2023/07/02 01:01:58;;;;;;;2.10;1.30;;;18.30;1.00;;;;;;8278216;28;20184;-65
2023/07/02 01:06:03;;;;;;;1.70;1.30;;;18.30;1.00;;;;;;8270642;28;20266;-64
2023/07/02 01:10:04;;;;;;;2.63;1.07;;;18.30;1.00;;;;;;8265880;28;20219;-66
2023/07/02 01:14:08;;;;;;;1.37;1.03;;;18.30;1.00;;;;;;8277640;28;20179;-65
2023/07/02 01:18:10;;;;;;;3.17;1.13;;;18.20;1.00;;;;;;8274378;28;20191;-65
2023/07/02 01:22:12;;;;;;;1.20;0.90;;;18.20;1.00;;;;;;8272664;28;20250;-63
2023/07/02 01:26:14;;;;;;;1.60;1.00;;;18.10;10.80;;;;;;8273465;28;20196;-65
2023/07/02 01:30:27;;;;;;;2.27;1.07;;;18.00;76.60;;;;;;8275341;28;20216;-65
2023/07/02 01:34:28;;;;;;;3.50;1.30;;;18.00;99.90;;;;;;8271743;28;20199;-66
2023/07/02 01:38:29;;;;;;;1.10;0.93;;;18.00;99.90;;;;;;8273094;28;20187;-64
2023/07/02 01:42:33;;;;;;;1.83;1.03;;;17.90;99.90;;;;;;8274788;28;20187;-65
2023/07/02 01:46:33;;;;;;;2.30;1.33;;;17.90;99.90;;;;;;8272545;28;20212;-64
2023/07/02 01:50:34;;;;;;;1.40;1.10;;;17.90;99.90;;;;;;8273159;28;20214;-66
2023/07/02 01:54:36;;;;;;;2.57;1.20;;;17.80;99.90;;;;;;8270876;28;20214;-65
2023/07/02 01:58:37;;;;;;;1.80;1.03;;;17.80;1.00;;;;;;8274638;28;20195;-65
2023/07/02 02:02:38;;;;;;;1.30;1.20;;;17.80;1.00;;;;;;8270693;28;20187;-66
2023/07/02 02:06:39;;;;;;;1.53;1.10;;;17.80;1.00;;;;;;8271647;28;20270;-66
2023/07/02 02:10:40;;;;;;;2.20;1.30;;;17.70;1.00;;;;;;8272439;28;20184;-66
2023/07/02 02:14:41;;;;;;;2.47;1.27;;;17.70;1.00;;;;;;8272937;28;20249;-66
2023/07/02 02:18:42;;;;;;;1.37;1.23;;;17.70;1.00;;;;;;8268473;28;20199;-66
2023/07/02 02:22:46;;;;;;;1.30;1.20;;;17.70;1.00;;;;;;8267914;28;20195;-66
2023/07/02 02:26:47;;;;;;;1.10;1.00;;;17.70;1.00;;;;;;8281948;28;20235;-66
2023/07/02 02:30:51;;;;;;;1.77;1.30;;;17.70;1.00;;;;;;8269676;28;20191;-66
2023/07/02 02:34:52;;;;;;;3.33;1.23;;;17.60;1.00;;;;;;8268522;28;20194;-66
2023/07/02 02:38:53;;;;;;;2.00;1.20;;;17.70;99.90;;;;;;8271480;28;20187;-64
2023/07/02 02:42:53;;;;;;;1.50;1.23;;;17.70;99.90;;;;;;8269477;28;20290;-65
2023/07/02 02:46:55;;;;;;;2.97;1.57;;;17.60;99.90;;;;;;8274166;28;20235;-66
2023/07/02 02:50:55;;;;;;;1.83;1.40;;;17.60;99.90;;;;;;8268838;28;20194;-64
2023/07/02 02:54:56;;;;;;;2.97;1.37;;;17.60;99.90;;;;;;8270231;28;20179;-67
2023/07/02 02:58:57;;;;;;;1.50;1.17;;;17.60;99.90;;;;;;8272485;28;20205;-70
2023/07/02 03:02:59;;;;;;;1.80;1.40;;;17.60;99.90;;;;;;8269430;28;20233;-65
2023/07/02 03:07:00;;;;;;;2.13;1.60;;;17.60;99.90;;;;;;8268338;28;20305;-66
2023/07/02 03:11:01;;;;;;;1.87;1.07;;;17.70;99.90;;;;;;8268072;28;20242;-66
2023/07/02 03:15:02;;;;;;;3.10;1.37;;;17.80;99.90;;;;;;8270221;28;20301;-66
2023/07/02 03:19:03;;;;;;;1.97;1.30;;;17.80;99.90;;;;;;8268700;28;20200;-65
2023/07/02 03:23:03;;;;;;;2.70;1.37;;;17.80;99.90;;;;;;8268958;28;20253;-64
2023/07/02 03:27:05;;;;;;;1.03;0.93;;;17.90;99.90;;;;;;8264411;28;20211;-65
2023/07/02 03:31:06;;;;;;;2.60;1.63;;;17.90;99.90;;;;;;8270276;28;20191;-66
2023/07/02 03:35:07;;;;;;;2.00;1.63;;;17.90;99.90;;;;;;8268364;28;20211;-67
2023/07/02 03:39:08;;;;;;;1.27;1.17;;;17.90;64.90;;;;;;8271319;28;20200;-64
2023/07/02 03:43:11;;;;;;;1.63;1.20;;;17.90;81.60;;;;;;8270604;28;20210;-67
2023/07/02 03:47:12;;;;;;;1.40;1.30;;;17.90;51.90;;;;;;8266930;28;20226;-65
2023/07/02 03:51:14;;;;;;;1.30;1.20;;;17.90;79.10;;;;;;8266323;28;20194;-65
2023/07/02 03:55:15;;;;;;;1.80;1.60;;;17.90;89.60;;;;;;8266333;28;20190;-66
2023/07/02 03:59:18;;;;;;;1.97;1.53;;;18.00;24.00;;;;;;8270394;28;20195;-66
2023/07/02 04:03:18;;;;;;;4.00;1.60;;;18.10;1.00;;;;;;8262805;28;20269;-68
2023/07/02 04:07:19;;;;;;;1.90;1.53;;;18.10;1.00;;;;;;8270243;28;20277;-68
2023/07/02 04:11:20;;;;;;;1.67;1.43;;;18.10;1.00;;;;;;8268533;28;20187;-68
2023/07/02 04:15:21;;;;;;;2.90;1.63;;;18.10;1.00;;;;;;8267781;28;20239;-68
2023/07/02 04:19:22;;;;;;;1.80;1.57;;;18.10;1.00;;;;;;8266615;28;20210;-67
2023/07/02 04:23:23;;;;;;;1.80;1.50;;;18.10;1.00;;;;;;8266464;28;20278;-67
2023/07/02 04:27:24;;;;;;;2.83;1.73;;;18.10;1.00;;;;;;8268606;28;20222;-67
2023/07/02 04:31:26;;;;;;;1.83;1.40;;;18.10;1.00;;;;;;8270702;28;20202;-67
2023/07/02 04:35:26;;;;;;;2.70;1.60;;;18.00;22.90;;;;;;8263869;28;20241;-65
2023/07/02 04:39:27;;;;;;;2.53;1.67;;;18.00;98.90;;;;;;8265017;28;20257;-68
2023/07/02 04:43:31;;;;;;;3.07;1.57;;;18.10;14.40;;;;;;8274090;28;20235;-66
2023/07/02 04:47:33;;;;;;;2.37;2.17;;;18.20;1.00;;;;;;8271007;28;20249;-66
2023/07/02 04:51:33;;;;;;;2.37;1.67;;;18.40;1.00;;;;;;8262684;28;20176;-66
2023/07/02 04:55:34;;;;;;;3.13;1.50;;;18.50;1.00;;;;;;8271906;28;20215;-66
2023/07/02 04:59:35;;;;;;;1.80;1.50;;;18.80;1.00;;;;;;8264248;28;20195;-68
2023/07/02 05:03:41;;;;;;;2.07;1.70;;;18.80;99.90;;;;;;8269682;28;20290;-68
2023/07/02 05:07:42;;;;;;;1.43;1.30;;;18.80;99.90;;;;;;8261422;28;20258;-66
2023/07/02 05:11:43;;;;;;;1.57;1.30;;;18.80;99.90;;;;;;8265029;28;20187;-66
2023/07/02 05:15:44;;;;;;;2.40;1.77;;;18.70;99.90;;;;;;8274400;28;20238;-66
2023/07/02 05:19:45;;;;;;;2.47;2.00;;;18.70;99.90;;;;;;8268997;28;20179;-66
2023/07/02 05:23:47;;;;;;;2.27;1.50;;;18.70;99.90;;;;;;8275734;28;20195;-68
2023/07/02 05:27:48;;;;;;;1.77;1.40;;;18.70;99.90;;;;;;8284358;28;20294;-65
2023/07/02 05:31:48;;;;;;;2.93;1.60;;;18.60;99.90;;;;;;8276958;28;20187;-66
2023/07/02 05:35:49;;;;;;;3.43;1.60;;;18.60;99.90;;;;;;8271064;28;20191;-68
2023/07/02 05:39:50;;;;;;;2.57;1.57;;;18.60;99.90;;;;;;8271350;28;20183;-68
2023/07/02 05:43:51;;;;;;;4.03;2.00;;;18.60;99.90;;;;;;8272262;28;20203;-67
2023/07/02 05:47:52;;;;;;;1.90;1.80;;;18.50;99.90;;;;;;8275591;28;20206;-68
2023/07/02 05:51:53;;;;;;;2.60;1.73;;;18.50;99.90;;;;;;8271160;28;20210;-68
2023/07/02 05:55:54;;;;;;;3.10;1.80;;;18.80;99.90;;;;;;8270889;28;20176;-71
2023/07/02 05:59:55;;;;;;;2.30;1.70;;;19.50;99.90;;;;;;8270676;28;20199;-68
2023/07/02 06:03:56;;;;;;;2.60;1.70;;;19.70;99.90;;;;;;8271434;28;20207;-67
2023/07/02 06:07:57;;;;;;;3.77;1.93;;;19.60;99.90;;;;;;8270952;28;20207;-68
2023/07/02 06:11:58;;;;;;;2.13;1.43;;;19.90;99.90;;;;;;8287429;28;20183;-68
2023/07/02 06:15:59;;;;;;;2.27;1.60;;;19.90;99.90;;;;;;8268204;28;20183;-66
2023/07/02 06:20:04;;;;;;;1.90;1.70;;;19.30;99.90;;;;;;8288229;28;20192;-65
2023/07/02 06:24:05;;;;;;;1.43;1.33;;;19.20;99.90;;;;;;8288231;28;20191;-69
2023/07/02 06:28:13;;;;;;;1.47;1.33;;;19.30;99.90;;;;;;8270582;28;20218;-67
2023/07/02 06:32:13;;;;;;;2.47;1.50;;;19.40;99.90;;;;;;8271475;28;20183;-68
2023/07/02 06:36:15;;;;;;;3.20;1.50;;;19.70;99.90;;;;;;8268662;28;20187;-67
2023/07/02 06:40:15;;;;;;;1.53;1.43;;;19.50;58.50;;;;;;8271238;28;20183;-66
2023/07/02 06:44:16;;;;;;;2.13;1.60;;;19.30;75.70;;;;;;8273219;28;20195;-68
2023/07/02 06:48:26;;;;;;;2.37;1.60;;;19.20;99.90;;;;;;8266387;28;20262;-68
2023/07/02 06:52:27;;;;;;;1.43;1.33;;;19.40;99.90;;;;;;8270027;28;20226;-67
2023/07/02 06:56:34;;;;;;;1.40;1.30;;;19.70;89.80;;;;;;8269211;28;20182;-67
2023/07/02 07:00:37;;;;;;;1.77;1.57;;;19.90;83.10;;;;;;8271126;28;20191;-72
2023/07/02 07:04:38;;;;;;;2.10;1.37;;;20.20;13.30;;;;;;8270070;28;20261;-65
2023/07/02 07:08:39;;;;;;;1.70;1.50;;;19.90;1.00;;;;;;8266751;28;20230;-65
2023/07/02 07:12:40;;;;;;;1.80;1.40;;;19.80;1.00;;;;;;8273285;28;20191;-66
2023/07/02 07:16:42;;;;;;;1.80;1.17;;;19.70;1.00;;;;;;8266338;28;20201;-66
2023/07/02 07:20:42;;;;;;;3.40;1.60;;;19.80;1.00;;;;;;8285537;28;20184;-68
2023/07/02 07:24:43;;;;;;;2.97;1.50;;;19.80;1.00;;;;;;8270818;28;20234;-66
2023/07/02 07:28:44;;;;;;;2.47;1.30;;;19.60;1.00;;;;;;8268285;28;20275;-66
2023/07/02 07:32:45;;;;;;;2.10;1.47;;;19.60;1.00;;;;;;8270152;28;20211;-66
2023/07/02 07:36:46;;;;;;;1.43;1.20;;;19.80;1.00;;;;;;8267487;28;20187;-66
2023/07/02 07:40:47;;;;;;;2.60;1.27;;;20.30;1.00;;;;;;8266721;28;20214;-65
2023/07/02 07:44:50;;;;;;;2.03;1.40;;;20.60;1.00;;;;;;8270270;28;20196;-66
2023/07/02 07:48:51;;;;;;;4.57;1.90;;;20.70;1.00;;;;;;8270054;28;20221;-67
2023/07/02 07:52:52;;;;;;;3.03;1.53;;;21.30;1.00;;;;;;8273012;28;20191;-68
2023/07/02 07:56:53;;;;;;;1.80;1.30;;;22.00;1.00;;;;;;8280868;28;20367;-67
2023/07/02 08:00:53;;;;;;;1.30;1.20;;;22.10;1.00;;;;;;8271129;28;20288;-68
2023/07/02 08:04:54;;;;;;;1.60;1.50;;;22.20;1.00;;;;;;8269276;28;20207;-65
2023/07/02 08:08:55;;;;;;;2.53;1.70;;;22.50;1.00;;;;;;8273417;28;20212;-67
2023/07/02 08:12:56;;;;;;;1.93;1.60;;;22.80;1.00;;;;;;8268850;28;20184;-67
2023/07/02 08:16:57;;;;;;;3.73;1.70;;;23.10;1.00;;;;;;8268119;28;20202;-66
2023/07/02 08:20:58;;;;;;;2.63;1.40;;;22.90;1.00;;;;;;8267177;28;20186;-67
2023/07/02 08:24:58;;;;;;;1.90;1.20;;;22.80;1.00;;;;;;8268454;28;20186;-65
2023/07/02 08:28:59;;;;;;;2.97;1.60;;;22.40;1.00;;;;;;8267688;28;20234;-68
2023/07/02 08:33:00;;;;;;;2.00;1.40;;;22.70;1.00;;;;;;8265675;28;20265;-67
2023/07/02 08:37:01;;;;;;;4.10;1.40;;;22.90;1.00;;;;;;8279463;28;20199;-66
2023/07/02 08:41:02;;;;;;;2.63;1.70;;;22.50;1.00;;;;;;8266036;28;20191;-69
2023/07/02 08:45:04;;;;;;;1.83;1.30;;;22.50;1.00;;;;;;8270839;28;20201;-65
2023/07/02 08:49:08;;;;;;;1.47;1.00;;;22.60;1.00;;;;;;8273150;28;20215;-68
2023/07/02 08:53:09;;;;;;;2.03;1.40;;;23.00;1.00;;;;;;8282973;28;20212;-64
2023/07/02 08:57:10;;;;;;;2.23;1.40;;;23.60;1.00;;;;;;8272078;28;20218;-68
2023/07/02 09:01:14;;;;;;;1.90;1.23;;;24.10;1.00;;;;;;8271904;28;20202;-67
2023/07/02 09:05:15;;;;;;;2.80;1.10;;;24.50;1.00;;;;;;8270332;28;20218;-67
2023/07/02 09:09:16;;;;;;;2.40;1.20;;;24.30;1.00;;;;;;8274059;28;20214;-68
2023/07/02 09:13:18;;;;;;;1.93;1.30;;;23.40;1.00;;;;;;8272308;28;20183;-69
2023/07/02 09:17:18;;;;;;;1.97;1.27;;;22.80;1.00;;;;;;8276809;28;20187;-66
2023/07/02 09:21:19;;;;;;;3.33;1.50;;;22.70;1.00;;;;;;8272623;28;20192;-68
2023/07/02 09:25:20;;;;;;;2.90;1.20;;;22.40;1.00;;;;;;8269675;28;20211;-66
2023/07/02 09:29:32;;;;;;;3.27;1.50;;;21.90;1.00;;;;;;8273805;28;20231;-68
2023/07/02 09:33:33;;;;;;;2.43;1.60;;;21.70;1.00;;;;;;8270270;28;20194;-66
2023/07/02 09:37:34;;;;;;;1.40;1.20;;;21.10;1.00;;;;;;8272845;28;20192;-64
2023/07/02 09:41:35;;;;;;;2.20;1.60;;;21.40;1.00;;;;;;8265815;28;20187;-67
2023/07/02 09:45:37;;;;;;;1.83;1.40;;;21.80;1.00;;;;;;8266725;28;20202;-67
2023/07/02 09:49:47;;;;;;;2.90;1.40;;;22.30;1.00;;;;;;8271330;28;20210;-69
2023/07/02 09:53:48;;;;;;;4.47;1.30;;;22.70;1.00;;;;;;8285046;28;20180;-65
2023/07/02 09:57:49;;;;;;;2.77;1.60;;;22.90;1.00;;;;;;8270617;28;20206;-66
2023/07/02 10:01:50;;;;;;;1.70;1.13;;;22.60;1.00;;;;;;8276539;28;20282;-66
2023/07/02 10:06:02;;;;;;;2.53;1.50;;;22.60;1.00;;;;;;8270435;28;20215;-69
2023/07/02 10:10:03;;;;;;;3.23;1.47;;;22.90;1.00;;;;;;8269090;28;20222;-68
2023/07/02 10:14:04;;;;;;;1.70;1.40;;;23.30;1.00;;;;;;8274946;28;20275;-68
2023/07/02 10:18:06;;;;;;;1.47;1.37;;;23.30;1.00;;;;;;8273499;28;20187;-66
2023/07/02 10:22:08;;;;;;;2.87;1.10;;;23.30;1.00;;;;;;8275172;28;20275;-69
2023/07/02 10:26:18;;;;;;;2.87;1.27;;;23.30;1.00;;;;;;8267733;28;20188;-69
2023/07/02 10:30:29;;;;;;;2.30;1.17;;;22.80;1.00;;;;;;8273298;28;20261;-70
2023/07/02 10:34:35;;;;;;;2.53;1.40;;;22.60;1.00;;;;;;8271717;28;20180;-67
2023/07/02 10:38:36;;;;;;;2.30;1.43;;;22.80;1.00;;;;;;8267884;28;20188;-68
2023/07/02 10:42:51;;;;;;;2.30;1.30;;;23.40;1.00;;;;;;8265986;28;20222;-66
2023/07/02 10:46:52;;;;;;;1.80;1.10;;;23.50;1.00;;;;;;8266342;28;20187;-66
2023/07/02 10:50:53;;;;;;;2.00;1.17;;;23.40;1.00;;;;;;8268278;28;20266;-68
2023/07/02 10:54:54;;;;;;;1.30;1.03;;;23.50;1.00;;;;;;8269470;28;20188;-68
2023/07/02 10:58:55;;;;;;;2.83;1.03;;;23.50;1.00;;;;;;8266784;28;20263;-67
2023/07/02 11:02:56;;;;;;;2.40;1.07;;;23.10;1.00;;;;;;8267998;28;20286;-67
2023/07/02 11:06:57;;;;;;;1.57;1.20;;;23.40;1.00;;;;;;8271512;28;20191;-66
2023/07/02 11:11:08;;;;;;;1.33;1.13;;;23.70;1.00;;;;;;8269121;28;20179;-68
2023/07/02 11:15:10;;;;;;;1.80;1.00;;;23.70;1.00;;;;;;8269472;28;20198;-68
2023/07/02 11:19:11;;;;;;;2.90;1.10;;;23.30;1.00;;;;;;8276262;28;20258;-69
2023/07/02 11:23:23;;;;;;;1.10;0.80;;;23.30;1.00;;;;;;8271388;28;20262;-67
2023/07/02 11:27:24;;;;;;;1.70;1.20;;;23.80;1.00;;;;;;8277753;28;20243;-67
2023/07/02 11:31:26;;;;;;;3.63;1.27;;;24.20;1.00;;;;;;8265201;28;20186;-70
2023/07/02 11:35:36;;;;;;;1.83;1.13;;;23.90;1.00;;;;;;8267492;28;20270;-68
2023/07/02 11:39:37;;;;;;;1.40;0.90;;;24.30;1.00;;;;;;8265034;28;20206;-67
2023/07/02 11:43:38;;;;;;;3.53;1.20;;;24.80;1.00;;;;;;8282369;28;20206;-68
2023/07/02 11:47:39;;;;;;;1.93;1.47;;;24.90;1.00;;;;;;8265505;28;20229;-66
2023/07/02 11:51:48;;;;;;;1.63;1.10;;;24.70;1.00;;;;;;8266927;28;20179;-67
2023/07/02 11:55:49;;;;;;;1.80;1.13;;;24.20;1.00;;;;;;8265635;28;20215;-66
2023/07/02 11:59:52;;;;;;;2.00;1.30;;;23.90;1.00;;;;;;8268175;28;20180;-68
2023/07/02 12:03:53;;;;;;;1.90;1.10;;;23.50;1.00;;;;;;8267522;28;20211;-65
2023/07/02 12:07:54;;;;;;;1.83;1.20;;;22.90;1.00;;;;;;8264248;28;20225;-69
2023/07/02 12:11:55;;;;;;;1.60;1.10;;;22.60;1.00;;;;;;8268372;28;20226;-69
2023/07/02 12:15:55;;;;;;;3.30;1.23;;;22.40;1.00;;;;;;8266691;28;20247;-68
2023/07/02 12:19:57;;;;;;;2.07;1.47;;;22.60;1.00;;;;;;8263442;28;20219;-67
2023/07/02 12:23:58;;;;;;;1.60;1.40;;;22.50;1.00;;;;;;8277401;28;20215;-69
2023/07/02 12:27:59;;;;;;;1.43;1.13;;;22.10;1.00;;;;;;8272392;28;20214;-68
2023/07/02 12:32:00;;;;;;;1.93;1.33;;;21.80;1.00;;;;;;8274763;28;20235;-68
2023/07/02 12:36:03;;;;;;;2.33;1.40;;;21.60;1.00;;;;;;8271181;28;20198;-67
2023/07/02 12:40:04;;;;;;;2.93;1.43;;;21.50;1.00;;;;;;8273713;28;20179;-67
2023/07/02 12:44:05;;;;;;;2.23;1.70;;;21.20;1.00;;;;;;8272468;28;20199;-66
2023/07/02 12:48:06;;;;;;;1.67;1.53;;;21.00;1.00;;;;;;8275863;28;20219;-66
2023/07/02 12:52:10;;;;;;;3.63;1.57;;;20.90;1.00;;;;;;8271884;28;20251;-67
2023/07/02 12:56:11;;;;;;;1.57;1.27;;;21.10;1.00;;;;;;8276930;28;20284;-66
2023/07/02 13:00:12;;;;;;;2.00;1.50;;;21.50;1.00;;;;;;8272336;28;20278;-67
2023/07/02 13:04:15;;;;;;;1.70;1.40;;;22.30;1.00;;;;;;8276178;28;20211;-66
2023/07/02 13:08:15;;;;;;;5.00;1.37;;;22.80;1.00;;;;;;8278908;28;20258;-65
2023/07/02 13:12:17;;;;;;;5.33;1.80;;;22.90;1.00;;;;;;8271249;28;20196;-68
2023/07/02 13:16:18;;;;;;;2.27;1.40;;;22.50;1.00;;;;;;8271195;28;20305;-65
2023/07/02 13:20:19;;;;;;;5.97;1.60;;;22.60;1.00;;;;;;8277148;28;20195;-69
2023/07/02 13:24:20;;;;;;;3.00;1.40;;;22.60;1.00;;;;;;8269166;28;20184;-66
2023/07/02 13:28:21;;;;;;;2.77;1.40;;;22.40;1.00;;;;;;8273848;28;20212;-68
2023/07/02 13:32:22;;;;;;;2.37;1.40;;;22.60;1.00;;;;;;8270147;28;20238;-68
2023/07/02 13:36:23;;;;;;;4.10;1.57;;;22.40;1.00;;;;;;8270091;28;20176;-68
2023/07/02 13:40:24;;;;;;;2.97;1.47;;;22.50;1.00;;;;;;8268124;28;20191;-65
2023/07/02 13:44:25;;;;;;;5.57;1.50;;;22.20;1.00;;;;;;8272785;28;20228;-67
2023/07/02 13:48:26;;;;;;;1.87;1.60;;;22.30;1.00;;;;;;8269271;28;20220;-70
2023/07/02 13:52:27;;;;;;;2.00;1.73;;;22.40;1.00;;;;;;8270987;28;20270;-68
2023/07/02 13:56:28;;;;;;;1.70;1.53;;;22.50;1.00;;;;;;8270682;28;20184;-69
2023/07/02 14:00:29;;;;;;;3.50;1.80;;;22.80;1.00;;;;;;8271775;28;20194;-72
2023/07/02 14:04:30;;;;;;;2.53;1.70;;;23.10;1.00;;;;;;8269797;28;20199;-70
2023/07/02 14:08:31;;;;;;;2.17;1.60;;;23.30;1.00;;;;;;8269934;28;20211;-68
2023/07/02 14:12:32;;;;;;;2.00;1.77;;;22.90;1.00;;;;;;8268531;28;20188;-70
2023/07/02 14:16:33;;;;;;;2.07;1.53;;;23.40;1.00;;;;;;8269016;28;20190;-70
2023/07/02 14:20:34;;;;;;;3.27;1.40;;;23.50;1.00;;;;;;8269459;28;20198;-68
2023/07/02 14:24:35;;;;;;;2.67;1.70;;;23.80;1.00;;;;;;8271019;28;20364;-70
2023/07/02 14:28:37;;;;;;;1.77;1.50;;;24.10;1.00;;;;;;8275749;28;20330;-68
2023/07/02 14:32:39;;;;;;;3.27;1.40;;;24.30;1.00;;;;;;8267347;28;20221;-68
2023/07/02 14:36:39;;;;;;;1.50;1.40;;;24.50;1.00;;;;;;8270767;28;20230;-66
2023/07/02 14:40:40;;;;;;;3.03;1.90;;;24.60;1.00;;;;;;8266220;28;20290;-68
2023/07/02 14:44:41;;;;;;;2.93;1.90;;;24.20;1.00;;;;;;8266822;28;20199;-68
2023/07/02 14:48:42;;;;;;;3.27;2.00;;;24.10;1.00;;;;;;8273187;28;20215;-67
2023/07/02 14:52:43;;;;;;;4.20;1.70;;;24.30;1.00;;;;;;8267027;28;20263;-67
2023/07/02 14:56:44;;;;;;;2.33;1.83;;;24.20;1.00;;;;;;8271543;28;20188;-69
2023/07/02 15:00:46;;;;;;;4.50;1.90;;;24.20;1.00;;;;;;8269477;28;20184;-66
2023/07/02 15:04:50;;;;;;;5.60;2.10;;;24.00;1.00;;;;;;8269541;28;20298;-72
2023/07/02 15:08:51;;;;;;;3.70;2.10;;;23.40;1.00;;;;;;8265572;28;20223;-69
2023/07/02 15:12:52;;;;;;;3.50;2.10;;;23.20;1.00;;;;;;8266980;28;20183;-68
2023/07/02 15:16:53;;;;;;;3.83;2.10;;;23.00;1.00;;;;;;8266685;28;20195;-68
2023/07/02 15:20:54;;;;;;;4.53;2.23;;;23.00;1.00;;;;;;8272521;28;20198;-67
2023/07/02 15:24:55;;;;;;;6.70;2.87;;;22.80;1.00;;;;;;8267926;28;20195;-70
2023/07/02 15:28:56;;;;;;;4.70;2.40;;;22.70;1.00;;;;;;8270506;28;20223;-68
2023/07/02 15:32:57;;;;;;;3.80;2.30;;;22.90;1.00;;;;;;8265803;28;20191;-71
2023/07/02 15:36:58;;;;;;;5.23;2.63;;;22.90;1.00;;;;;;8267639;28;20187;-66
2023/07/02 15:41:12;;;;;;;3.00;2.30;;;22.90;1.00;;;;;;8270071;28;20191;-65
2023/07/02 15:45:13;;;;;;;6.40;2.90;;;23.10;1.00;;;;;;8265317;28;20212;-68
2023/07/02 15:49:14;;;;;;;4.87;2.63;;;23.00;1.00;;;;;;8268907;28;20222;-65
2023/07/02 15:53:15;;;;;;;6.10;2.77;;;22.80;1.00;;;;;;8269910;28;20187;-66
2023/07/02 15:57:17;;;;;;;5.27;3.10;;;22.80;1.00;;;;;;8265913;28;20184;-67
2023/07/02 16:01:20;;;;;;;5.67;3.03;;;22.80;1.00;;;;;;8267837;28;20203;-67
2023/07/02 16:05:21;;;;;;;7.17;3.10;;;22.80;1.00;;;;;;8265213;28;20198;-65
2023/07/02 16:09:25;;;;;;;7.47;2.80;;;22.70;1.00;;;;;;8269732;28;20222;-64
2023/07/02 16:13:27;;;;;;;6.87;3.20;;;22.70;1.00;;;;;;8265961;28;20191;-65
2023/07/02 16:17:29;;;;;;;4.87;3.13;;;22.80;1.00;;;;;;8274237;28;20187;-67
2023/07/02 16:21:30;;;;;;;7.60;2.97;;;22.80;1.00;;;;;;8265024;28;20183;-65
2023/07/02 16:25:31;;;;;;;3.60;2.90;;;22.40;1.00;;;;;;8265615;28;20198;-68
2023/07/02 16:29:32;;;;;;;8.73;3.20;;;22.20;1.00;;;;;;8264619;28;20252;-67
2023/07/02 16:33:40;;;;;;;6.77;3.73;;;22.00;1.00;;;;;;8267150;28;20183;-67
2023/07/02 16:37:41;;;;;;;5.10;3.30;;;21.90;1.00;;;;;;8265848;28;20187;-67
2023/07/02 16:41:48;;;;;;;8.60;3.50;;;21.80;1.00;;;;;;8271025;28;20191;-67
2023/07/02 16:45:56;;;;;;;5.87;3.43;;;21.80;1.00;;;;;;8263631;28;20230;-69
2023/07/02 16:50:00;;;;;;;5.80;3.33;;;22.30;1.00;;;;;;8269477;28;20226;-70
2023/07/02 16:54:01;;;;;;;6.93;3.80;;;22.70;1.00;;;;;;8266183;28;20186;-69
2023/07/02 16:58:02;;;;;;;9.30;4.20;;;22.50;1.00;;;;;;8268076;28;20192;-69
2023/07/02 17:02:07;;;;;;;8.10;4.43;;;22.20;1.00;;;;;;8266254;28;20203;-70
2023/07/02 17:06:08;;;;;;;5.57;4.27;;;21.80;1.00;;;;;;8262356;28;20226;-67
2023/07/02 17:10:09;;;;;;;7.07;4.20;;;21.70;1.00;;;;;;8266640;28;20218;-68
2023/07/02 17:14:11;;;;;;;5.90;4.20;;;21.60;1.00;;;;;;8269962;28;20254;-66
2023/07/02 17:18:11;;;;;;;6.17;4.40;;;21.70;1.00;;;;;;8272423;28;20198;-69
2023/07/02 17:22:15;;;;;;;7.93;4.40;;;21.90;1.00;;;;;;8269356;28;20191;-70
2023/07/02 17:26:16;;;;;;;5.77;4.57;;;22.30;1.00;;;;;;8271547;28;20265;-72
2023/07/02 17:30:17;;;;;;;11.33;4.70;;;22.10;1.00;;;;;;8276354;28;20215;-67
2023/07/02 17:34:22;;;;;;;7.30;5.13;;;21.90;1.00;;;;;;8270402;28;20199;-69
2023/07/02 17:38:23;;;;;;;7.40;5.00;;;22.00;1.00;;;;;;8274088;28;20199;-68
2023/07/02 17:42:24;;;;;;;7.67;5.07;;;22.40;1.00;;;;;;8273443;28;20297;-68
2023/07/02 17:46:25;;;;;;;8.07;4.60;;;23.20;1.00;;;;;;8270352;28;20270;-69
2023/07/02 17:50:26;;;;;;;7.90;4.80;;;23.40;1.00;;;;;;8272208;28;20219;-67
2023/07/02 17:54:42;;;;;;;8.23;4.70;;;23.20;1.00;;;;;;8270091;28;20218;-66
2023/07/02 17:58:43;;;;;;;6.33;4.80;;;23.10;1.00;;;;;;8271657;28;20192;-69
2023/07/02 18:02:44;;;;;;;7.67;5.30;;;22.80;1.00;;;;;;8269490;28;20251;-68
2023/07/02 18:06:46;;;;;;;10.13;5.23;;;22.70;1.00;;;;;;8267854;28;20306;-68
2023/07/02 18:10:48;;;;;;;9.50;5.40;;;22.60;1.00;;;;;;8273606;28;20214;-67
2023/07/02 18:14:49;;;;;;;7.27;5.23;;;22.20;1.00;;;;;;8276017;28;20188;-70
2023/07/02 18:18:50;;;;;;;8.73;5.30;;;21.80;1.00;;;;;;8268235;28;20203;-70
2023/07/02 18:22:51;;;;;;;9.50;5.50;;;21.60;1.00;;;;;;8269989;28;20195;-68
2023/07/02 18:26:52;;;;;;;9.00;5.07;;;21.90;1.00;;;;;;8271470;28;20195;-69
2023/07/02 18:30:53;;;;;;;8.10;5.50;;;21.80;1.00;;;;;;8266625;28;20219;-67
2023/07/02 18:34:54;;;;;;;10.67;5.80;;;21.60;1.00;;;;;;8266356;28;20190;-69
2023/07/02 18:38:55;;;;;;;11.03;5.97;;;21.50;1.00;;;;;;8266952;28;20214;-69
2023/07/02 18:42:56;;;;;;;8.47;5.03;;;21.60;1.00;;;;;;8265927;28;20218;-66
2023/07/02 18:46:58;;;;;;;9.33;5.13;;;21.70;1.00;;;;;;8272870;28;20191;-69
2023/07/02 18:50:59;;;;;;;10.07;5.67;;;21.70;1.00;;;;;;8264244;28;20207;-67
2023/07/02 18:55:00;;;;;;;8.40;5.60;;;21.60;1.00;;;;;;8270225;28;20217;-69
2023/07/02 18:59:01;;;;;;;10.17;5.73;;;21.50;1.00;;;;;;8275883;28;20200;-66
2023/07/02 19:03:02;;;;;;;8.10;6.00;;;21.30;1.00;;;;;;8265512;28;20251;-68
2023/07/02 19:07:05;;;;;;;7.70;5.47;;;20.90;1.00;;;;;;8265499;28;20191;-66
2023/07/02 19:11:08;;;;;;;9.47;5.70;;;20.40;1.00;;;;;;8263906;28;20215;-65
2023/07/02 19:15:10;;;;;;;11.27;5.87;;;20.00;1.00;;;;;;8268793;28;20199;-67
2023/07/02 19:19:11;;;;;;;10.00;5.83;;;19.70;1.00;;;;;;8265233;28;20198;-66
2023/07/02 19:23:12;;;;;;;9.63;5.33;;;19.50;1.00;;;;;;8268529;28;20358;-65
2023/07/02 19:27:14;;;;;;;6.00;4.80;;;19.20;1.00;;;;;;8270339;28;20191;-66
2023/07/02 19:31:15;;;;;;;7.97;5.50;;;18.90;1.00;;;;;;8265407;28;20251;-66
2023/07/02 19:35:16;;;;;;;6.60;5.07;;;18.70;1.00;;;;;;8264886;28;20198;-66
2023/07/02 19:39:19;;;;;;;7.47;4.97;;;18.40;1.00;;;;;;8273137;28;20265;-64
2023/07/02 19:43:20;;;;;;;7.97;5.57;;;18.20;1.00;;;;;;8263394;28;20199;-64
2023/07/02 19:47:21;;;;;;;8.20;5.60;;;18.00;1.00;;;;;;8267022;28;20205;-65
2023/07/02 19:51:23;;;;;;;9.90;5.70;;;17.80;1.00;;;;;;8268830;28;20198;-65
2023/07/02 19:55:35;;;;;;;6.73;5.30;;;17.50;1.00;;;;;;8266707;28;20222;-64
2023/07/02 19:59:37;;;;;;;6.67;5.13;;;17.20;1.00;;;;;;8265686;28;20214;-63
2023/07/02 20:03:42;;;;;;;7.97;5.10;;;17.00;1.00;;;;;;8268671;28;20216;-66
2023/07/02 20:07:43;;;;;;;7.93;5.47;;;16.80;1.00;;;;;;8277937;28;20226;-65
2023/07/02 20:11:45;;;;;;;8.10;5.60;;;16.60;1.00;;;;;;8265365;28;20189;-65
2023/07/02 20:15:46;;;;;;;6.53;5.70;;;16.50;1.00;;;;;;8259515;28;20195;-65
2023/07/02 20:19:49;;;;;;;6.20;5.10;;;16.30;1.00;;;;;;8281087;28;20298;-65
2023/07/02 20:23:50;;;;;;;8.77;6.33;;;16.10;1.00;;;;;;8269964;28;20203;-67
2023/07/02 20:27:52;;;;;;;8.63;6.20;;;15.90;1.00;;;;;;8268447;28;20225;-70
2023/07/02 20:31:53;;;;;;;8.03;6.10;;;15.80;1.00;;;;;;8265538;28;20194;-68
2023/07/02 20:35:54;;;;;;;9.07;6.33;;;15.60;1.00;;;;;;8268632;28;20281;-65
2023/07/02 20:40:01;;;;;;;8.73;6.00;;;15.50;5.50;;;;;;8270664;28;20195;-66
2023/07/02 20:44:03;;;;;;;8.07;6.50;;;15.40;13.10;;;;;;8266265;28;20298;-64
2023/07/02 20:48:04;;;;;;;9.60;6.70;;;15.30;26.10;;;;;;8269562;28;20227;-64
2023/07/02 20:52:06;;;;;;;7.93;6.60;;;15.20;42.70;;;;;;8278122;28;20195;-63
2023/07/02 20:56:07;;;;;;;8.43;6.17;;;15.10;54.20;;;;;;8271817;28;20206;-65
2023/07/02 21:00:10;;;;;;;7.53;6.37;;;15.10;54.60;;;;;;8271381;28;20219;-65
2023/07/02 21:04:11;;;;;;;10.33;6.60;;;15.00;61.60;;;;;;8273037;28;20307;-64
2023/07/02 21:08:12;;;;;;;7.87;5.93;;;14.90;69.80;;;;;;8271945;28;20218;-65